createdAt,value
2023-02-13T00:00:13.287Z,80.01
2023-02-13T00:01:13.396Z,79.84
2023-02-13T00:02:13.432Z,79.94
2023-02-13T00:03:13.487Z,79.39
2023-02-13T00:04:13.422Z,78.99
2023-02-13T00:05:13.446Z,79.02
2023-02-13T00:06:13.467Z,79.74
2023-02-13T00:07:13.586Z,79.43
2023-02-13T00:08:13.491Z,80.49
2023-02-13T00:09:13.542Z,79.74
2023-02-13T00:10:13.584Z,79.74
2023-02-13T00:11:13.527Z,79.43
2023-02-13T00:12:13.611Z,79.68
2023-02-13T00:13:13.661Z,80.35
2023-02-13T00:14:13.670Z,80.29
2023-02-13T00:15:13.730Z,80.25
2023-02-13T00:16:13.766Z,79.88
2023-02-13T00:17:13.696Z,79.84
2023-02-13T00:18:13.738Z,79.64
2023-02-13T00:19:13.810Z,79.64
2023-02-13T00:20:14.079Z,79.43
2023-02-13T00:21:13.912Z,79.74
2023-02-13T00:22:13.969Z,80.60
2023-02-13T00:23:14.030Z,80.69
2023-02-13T00:24:14.091Z,80.53
2023-02-13T00:25:14.088Z,81.35
2023-02-13T00:26:14.164Z,81.01
2023-02-13T00:27:14.143Z,80.69
2023-02-13T00:28:14.224Z,80.74
2023-02-13T00:29:14.229Z,81.15
2023-02-13T00:30:14.290Z,80.90
2023-02-13T00:31:14.451Z,80.39
2023-02-13T00:32:14.561Z,80.49
2023-02-13T00:33:14.369Z,80.25
2023-02-13T00:34:14.361Z,79.19
2023-02-13T00:35:14.358Z,78.88
2023-02-13T00:36:14.393Z,80.43
2023-02-13T00:37:14.459Z,80.53
2023-02-13T00:38:14.426Z,81.35
2023-02-13T00:39:14.477Z,80.49
2023-02-13T00:40:14.546Z,79.98
2023-02-13T00:41:14.626Z,81.24
2023-02-13T00:42:14.739Z,81.79
2023-02-13T00:43:14.698Z,81.41
2023-02-13T00:44:14.761Z,80.29
2023-02-13T00:45:14.810Z,80.08
2023-02-13T00:46:14.922Z,80.43
2023-02-13T00:47:15.017Z,80.63
2023-02-13T00:48:14.874Z,81.56
2023-02-13T00:49:14.885Z,81.01
2023-02-13T00:50:14.871Z,80.35
2023-02-13T00:51:14.881Z,79.57
2023-02-13T00:52:14.866Z,80.39
2023-02-13T00:53:14.974Z,80.43
2023-02-13T00:54:14.980Z,80.46
2023-02-13T00:55:14.976Z,80.15
2023-02-13T00:56:15.029Z,79.53
2023-02-13T00:57:15.104Z,79.39
2023-02-13T00:58:15.205Z,78.72
2023-02-13T00:59:15.236Z,79.64
2023-02-13T01:00:15.255Z,79.43
2023-02-13T01:01:15.349Z,78.99
2023-02-13T01:02:15.373Z,78.41
2023-02-13T01:03:15.488Z,80.08
2023-02-13T01:04:15.451Z,80.53
2023-02-13T01:05:15.493Z,80.83
2023-02-13T01:06:15.543Z,81.29
2023-02-13T01:07:16.668Z,81.45
2023-02-13T01:08:15.647Z,81.01
2023-02-13T01:09:15.718Z,80.74
2023-02-13T01:10:15.774Z,80.63
2023-02-13T01:11:15.804Z,81.15
2023-02-13T01:12:15.846Z,80.69
2023-02-13T01:13:15.894Z,80.15
2023-02-13T01:14:15.956Z,79.57
2023-02-13T01:15:16.025Z,80.29
2023-02-13T01:16:16.195Z,80.43
2023-02-13T01:17:16.057Z,81.65
2023-02-13T01:18:16.107Z,81.29
2023-02-13T01:19:16.168Z,81.76
2023-02-13T01:20:16.208Z,80.80
2023-02-13T01:21:16.267Z,80.69
2023-02-13T01:22:16.355Z,80.83
2023-02-13T01:23:16.320Z,81.29
2023-02-13T01:24:16.373Z,81.59
2023-02-13T01:25:16.419Z,81.04
2023-02-13T01:26:16.486Z,80.69
2023-02-13T01:27:17.255Z,80.19
2023-02-13T01:28:16.570Z,80.60
2023-02-13T01:29:16.556Z,79.94
2023-02-13T01:30:16.534Z,79.84
2023-02-13T01:31:16.718Z,79.74
2023-02-13T01:32:16.724Z,79.43
2023-02-13T01:33:16.628Z,80.39
2023-02-13T01:34:16.703Z,79.94
2023-02-13T01:35:16.694Z,79.53
2023-02-13T01:36:16.757Z,79.47
2023-02-13T01:37:16.812Z,80.22
2023-02-13T01:38:16.854Z,79.98
2023-02-13T01:39:16.915Z,79.88
2023-02-13T01:40:16.972Z,80.29
2023-02-13T01:41:17.029Z,80.02
2023-02-13T01:42:17.250Z,80.94
2023-02-13T01:43:17.147Z,80.39
2023-02-13T01:44:17.119Z,79.64
2023-02-13T01:45:17.189Z,79.23
2023-02-13T01:46:17.299Z,79.68
2023-02-13T01:47:17.244Z,80.43
2023-02-13T01:48:17.314Z,80.60
2023-02-13T01:49:17.291Z,79.78
2023-02-13T01:50:17.362Z,79.71
2023-02-13T01:51:17.410Z,80.60
2023-02-13T01:52:17.454Z,79.68
2023-02-13T01:53:17.511Z,80.08
2023-02-13T01:54:18.423Z,79.78
2023-02-13T01:55:17.624Z,80.43
2023-02-13T01:56:19.822Z,79.98
2023-02-13T01:57:17.731Z,79.68
2023-02-13T01:58:17.773Z,80.08
2023-02-13T01:59:17.826Z,79.68
2023-02-13T02:00:17.887Z,80.02
2023-02-13T02:01:17.932Z,81.15
2023-02-13T02:02:18.049Z,80.67
2023-02-13T02:03:17.953Z,80.98
2023-02-13T02:04:18.003Z,80.83
2023-02-13T02:05:18.043Z,80.46
2023-02-13T02:06:18.122Z,80.77
2023-02-13T02:07:18.093Z,80.98
2023-02-13T02:08:18.144Z,80.33
2023-02-13T02:09:18.197Z,80.98
2023-02-13T02:10:18.239Z,80.63
2023-02-13T02:11:18.299Z,80.53
2023-02-13T02:12:18.347Z,80.53
2023-02-13T02:13:18.397Z,80.22
2023-02-13T02:14:18.437Z,80.53
2023-02-13T02:15:19.418Z,80.02
2023-02-13T02:16:18.625Z,80.43
2023-02-13T02:17:18.621Z,80.22
2023-02-13T02:18:18.631Z,80.22
2023-02-13T02:19:18.621Z,80.43
2023-02-13T02:20:18.716Z,79.50
2023-02-13T02:21:18.592Z,80.02
2023-02-13T02:22:18.646Z,79.68
2023-02-13T02:23:18.755Z,79.16
2023-02-13T02:24:18.757Z,78.82
2023-02-13T02:25:19.684Z,78.31
2023-02-13T02:26:18.754Z,77.97
2023-02-13T02:27:18.755Z,77.70
2023-02-13T02:28:18.782Z,78.24
2023-02-13T02:29:18.770Z,78.75
2023-02-13T02:30:18.900Z,78.61
2023-02-13T02:31:18.866Z,77.97
2023-02-13T02:32:18.858Z,77.35
2023-02-13T02:33:18.831Z,77.15
2023-02-13T02:34:18.893Z,77.35
2023-02-13T02:35:18.966Z,77.45
2023-02-13T02:36:18.950Z,77.59
2023-02-13T02:37:19.007Z,78.41
2023-02-13T02:38:19.072Z,78.86
2023-02-13T02:39:19.130Z,79.20
2023-02-13T02:40:19.183Z,79.30
2023-02-13T02:41:19.240Z,79.75
2023-02-13T02:42:19.290Z,80.16
2023-02-13T02:43:19.343Z,80.33
2023-02-13T02:44:19.409Z,79.47
2023-02-13T02:45:19.469Z,79.30
2023-02-13T02:46:19.600Z,79.41
2023-02-13T02:47:19.545Z,79.85
2023-02-13T02:48:19.580Z,80.46
2023-02-13T02:49:19.618Z,80.98
2023-02-13T02:50:19.678Z,80.53
2023-02-13T02:51:19.719Z,80.12
2023-02-13T02:52:19.787Z,79.85
2023-02-13T02:53:19.851Z,80.12
2023-02-13T02:54:19.901Z,79.68
2023-02-13T02:55:19.960Z,78.86
2023-02-13T02:56:20.005Z,79.37
2023-02-13T02:57:21.042Z,79.50
2023-02-13T02:58:20.109Z,79.37
2023-02-13T02:59:20.167Z,78.69
2023-02-13T03:00:20.212Z,79.41
2023-02-13T03:01:20.372Z,79.30
2023-02-13T03:02:20.267Z,79.50
2023-02-13T03:03:20.229Z,79.47
2023-02-13T03:04:20.372Z,78.72
2023-02-13T03:05:20.301Z,78.34
2023-02-13T03:06:20.367Z,78.65
2023-02-13T03:07:20.409Z,78.96
2023-02-13T03:08:20.490Z,79.41
2023-02-13T03:09:20.447Z,79.96
2023-02-13T03:10:20.511Z,80.12
2023-02-13T03:11:20.549Z,79.71
2023-02-13T03:12:20.597Z,79.82
2023-02-13T03:13:20.672Z,79.61
2023-02-13T03:14:20.768Z,80.43
2023-02-13T03:15:20.723Z,79.78
2023-02-13T03:16:20.861Z,79.47
2023-02-13T03:17:20.900Z,79.30
2023-02-13T03:18:20.891Z,79.91
2023-02-13T03:19:20.887Z,79.91
2023-02-13T03:20:20.910Z,79.96
2023-02-13T03:21:20.880Z,80.98
2023-02-13T03:22:20.930Z,80.33
2023-02-13T03:23:21.004Z,79.88
2023-02-13T03:24:21.251Z,79.06
2023-02-13T03:25:21.050Z,79.50
2023-02-13T03:26:21.127Z,79.64
2023-02-13T03:27:21.172Z,80.02
2023-02-13T03:28:21.315Z,80.12
2023-02-13T03:29:21.291Z,80.30
2023-02-13T03:30:21.296Z,81.12
2023-02-13T03:31:21.301Z,81.29
2023-02-13T03:32:21.258Z,80.88
2023-02-13T03:33:21.316Z,80.98
2023-02-13T03:34:21.382Z,80.88
2023-02-13T03:35:21.434Z,81.08
2023-02-13T03:36:21.475Z,81.22
2023-02-13T03:37:21.547Z,81.18
2023-02-13T03:38:21.598Z,80.57
2023-02-13T03:39:21.655Z,80.74
2023-02-13T03:40:21.714Z,80.60
2023-02-13T03:41:21.749Z,80.98
2023-02-13T03:42:21.816Z,80.67
2023-02-13T03:43:21.856Z,80.74
2023-02-13T03:44:21.900Z,80.22
2023-02-13T03:45:21.960Z,80.74
2023-02-13T03:46:22.017Z,80.43
2023-02-13T03:47:22.083Z,79.98
2023-02-13T03:48:22.136Z,79.91
2023-02-13T03:49:22.190Z,80.33
2023-02-13T03:50:22.260Z,79.68
2023-02-13T03:51:22.227Z,78.86
2023-02-13T03:52:22.278Z,79.16
2023-02-13T03:53:22.353Z,78.82
2023-02-13T03:54:22.349Z,78.52
2023-02-13T03:55:22.381Z,78.20
2023-02-13T03:56:22.375Z,78.75
2023-02-13T03:57:22.420Z,79.27
2023-02-13T03:58:22.486Z,78.96
2023-02-13T03:59:22.554Z,79.61
2023-02-13T04:00:22.607Z,80.46
2023-02-13T04:01:22.741Z,80.63
2023-02-13T04:02:22.686Z,80.36
2023-02-13T04:03:22.707Z,80.51
2023-02-13T04:04:22.676Z,81.70
2023-02-13T04:05:22.714Z,80.67
2023-02-13T04:06:22.756Z,80.83
2023-02-13T04:07:22.802Z,80.83
2023-02-13T04:08:22.854Z,80.83
2023-02-13T04:09:23.100Z,80.43
2023-02-13T04:10:22.893Z,80.88
2023-02-13T04:11:22.942Z,81.43
2023-02-13T04:12:22.995Z,82.24
2023-02-13T04:13:23.043Z,82.00
2023-02-13T04:14:23.093Z,82.14
2023-02-13T04:15:23.181Z,81.84
2023-02-13T04:16:23.165Z,82.10
2023-02-13T04:17:23.195Z,81.56
2023-02-13T04:18:23.246Z,80.91
2023-02-13T04:19:23.294Z,82.00
2023-02-13T04:20:23.364Z,81.59
2023-02-13T04:21:23.354Z,81.08
2023-02-13T04:22:23.390Z,81.45
2023-02-13T04:23:23.373Z,80.80
2023-02-13T04:24:23.327Z,80.22
2023-02-13T04:25:23.531Z,81.29
2023-02-13T04:26:23.428Z,80.94
2023-02-13T04:27:23.432Z,80.53
2023-02-13T04:28:23.461Z,80.53
2023-02-13T04:29:23.463Z,80.98
2023-02-13T04:30:23.492Z,80.63
2023-02-13T04:31:23.643Z,80.60
2023-02-13T04:32:23.604Z,81.73
2023-02-13T04:33:24.311Z,82.04
2023-02-13T04:34:23.581Z,82.65
2023-02-13T04:35:23.646Z,82.04
2023-02-13T04:36:23.609Z,81.18
2023-02-13T04:37:23.632Z,80.33
2023-02-13T04:38:23.609Z,80.88
2023-02-13T04:39:23.767Z,80.60
2023-02-13T04:40:23.688Z,82.32
2023-02-13T04:41:24.603Z,82.39
2023-02-13T04:42:23.675Z,82.49
2023-02-13T04:43:23.757Z,82.39
2023-02-13T04:44:23.763Z,81.84
2023-02-13T04:45:23.754Z,81.38
2023-02-13T04:46:23.828Z,80.67
2023-02-13T04:47:23.800Z,80.46
2023-02-13T04:48:23.852Z,80.26
2023-02-13T04:49:23.964Z,80.88
2023-02-13T04:50:23.987Z,80.63
2023-02-13T04:51:23.979Z,79.61
2023-02-13T04:52:24.029Z,80.88
2023-02-13T04:53:24.076Z,80.02
2023-02-13T04:54:24.072Z,80.02
2023-02-13T04:55:24.118Z,79.75
2023-02-13T04:56:24.211Z,79.85
2023-02-13T04:57:24.181Z,80.57
2023-02-13T04:58:24.218Z,80.36
2023-02-13T04:59:24.268Z,80.26
2023-02-13T05:00:24.320Z,80.36
2023-02-13T05:01:24.452Z,80.02
2023-02-13T05:02:24.442Z,79.41
2023-02-13T05:03:24.488Z,79.16
2023-02-13T05:04:24.640Z,78.96
2023-02-13T05:05:24.619Z,78.75
2023-02-13T05:06:24.613Z,78.75
2023-02-13T05:07:24.661Z,79.41
2023-02-13T05:08:24.719Z,79.82
2023-02-13T05:09:24.791Z,79.85
2023-02-13T05:10:24.834Z,80.67
2023-02-13T05:11:24.878Z,80.51
2023-02-13T05:12:24.915Z,80.36
2023-02-13T05:13:24.957Z,80.57
2023-02-13T05:14:25.022Z,80.40
2023-02-13T05:15:25.076Z,80.85
2023-02-13T05:16:25.128Z,80.91
2023-02-13T05:17:27.319Z,80.02
2023-02-13T05:18:25.246Z,79.13
2023-02-13T05:19:25.212Z,79.85
2023-02-13T05:20:25.306Z,79.64
2023-02-13T05:21:25.270Z,79.00
2023-02-13T05:22:25.305Z,78.59
2023-02-13T05:23:25.374Z,78.31
2023-02-13T05:24:25.438Z,79.13
2023-02-13T05:25:25.412Z,78.56
2023-02-13T05:26:25.477Z,79.79
2023-02-13T05:27:25.532Z,79.17
2023-02-13T05:28:25.721Z,79.58
2023-02-13T05:29:25.593Z,79.17
2023-02-13T05:30:25.682Z,80.44
2023-02-13T05:31:25.777Z,80.19
2023-02-13T05:32:25.674Z,79.07
2023-02-13T05:33:25.713Z,78.21
2023-02-13T05:34:25.789Z,78.86
2023-02-13T05:35:25.784Z,78.35
2023-02-13T05:36:25.836Z,78.42
2023-02-13T05:37:25.887Z,77.91
2023-02-13T05:38:25.951Z,78.15
2023-02-13T05:39:25.991Z,79.17
2023-02-13T05:40:26.069Z,78.59
2023-02-13T05:41:26.132Z,80.17
2023-02-13T05:42:26.276Z,80.37
2023-02-13T05:43:26.151Z,80.47
2023-02-13T05:44:26.190Z,80.27
2023-02-13T05:45:26.240Z,80.44
2023-02-13T05:46:26.412Z,79.04
2023-02-13T05:47:26.301Z,80.03
2023-02-13T05:48:26.377Z,79.27
2023-02-13T05:49:26.439Z,78.42
2023-02-13T05:50:26.482Z,77.46
2023-02-13T05:51:26.546Z,77.60
2023-02-13T05:52:26.594Z,78.15
2023-02-13T05:53:26.654Z,78.11
2023-02-13T05:54:26.634Z,78.31
2023-02-13T05:55:26.687Z,77.67
2023-02-13T05:56:26.757Z,77.29
2023-02-13T05:57:26.814Z,78.56
2023-02-13T05:58:26.879Z,77.70
2023-02-13T05:59:26.920Z,77.70
2023-02-13T06:00:26.974Z,77.84
2023-02-13T06:01:27.051Z,78.35
2023-02-13T06:02:27.037Z,78.76
2023-02-13T06:03:27.126Z,78.21
2023-02-13T06:04:27.100Z,77.56
2023-02-13T06:05:27.157Z,77.19
2023-02-13T06:06:27.225Z,77.50
2023-02-13T06:07:27.486Z,77.50
2023-02-13T06:08:28.346Z,77.84
2023-02-13T06:09:27.303Z,78.05
2023-02-13T06:10:27.365Z,78.80
2023-02-13T06:11:27.441Z,79.11
2023-02-13T06:12:27.431Z,80.03
2023-02-13T06:13:27.503Z,79.52
2023-02-13T06:14:27.523Z,78.80
2023-02-13T06:15:27.516Z,79.52
2023-02-13T06:16:27.565Z,79.21
2023-02-13T06:17:27.474Z,79.82
2023-02-13T06:18:27.534Z,79.48
2023-02-13T06:19:27.644Z,78.86
2023-02-13T06:20:27.608Z,78.45
2023-02-13T06:21:27.678Z,79.11
2023-02-13T06:22:27.710Z,79.11
2023-02-13T06:23:27.837Z,79.86
2023-02-13T06:24:27.803Z,80.64
2023-02-13T06:25:27.878Z,79.62
2023-02-13T06:26:27.860Z,79.38
2023-02-13T06:27:27.844Z,79.00
2023-02-13T06:28:27.905Z,79.62
2023-02-13T06:29:27.965Z,79.31
2023-02-13T06:30:28.015Z,79.82
2023-02-13T06:31:28.133Z,79.58
2023-02-13T06:32:28.028Z,79.58
2023-02-13T06:33:28.042Z,79.27
2023-02-13T06:34:28.027Z,78.86
2023-02-13T06:35:28.037Z,78.76
2023-02-13T06:36:28.882Z,78.97
2023-02-13T06:37:28.076Z,79.62
2023-02-13T06:38:28.086Z,79.62
2023-02-13T06:39:28.073Z,80.19
2023-02-13T06:40:29.028Z,79.27
2023-02-13T06:41:28.107Z,78.97
2023-02-13T06:42:28.116Z,79.27
2023-02-13T06:43:28.099Z,79.17
2023-02-13T06:44:28.109Z,80.17
2023-02-13T06:45:28.112Z,80.44
2023-02-13T06:46:28.151Z,79.93
2023-02-13T06:47:28.144Z,80.33
2023-02-13T06:48:28.175Z,80.23
2023-02-13T06:49:28.201Z,80.33
2023-02-13T06:50:28.252Z,80.27
2023-02-13T06:51:28.261Z,80.99
2023-02-13T06:52:28.275Z,81.40
2023-02-13T06:53:28.302Z,80.95
2023-02-13T06:54:41.416Z,80.17
2023-02-13T06:55:28.310Z,80.44
2023-02-13T06:56:28.362Z,80.09
2023-02-13T06:57:28.453Z,79.48
2023-02-13T06:58:28.423Z,79.68
2023-02-13T06:59:28.493Z,79.68
2023-02-13T07:00:28.609Z,79.27
2023-02-13T07:01:28.633Z,79.13
2023-02-13T07:02:28.665Z,78.90
2023-02-13T07:03:28.639Z,80.44
2023-02-13T07:04:28.694Z,80.74
2023-02-13T07:05:28.749Z,81.09
2023-02-13T07:06:28.724Z,81.09
2023-02-13T07:07:29.465Z,80.95
2023-02-13T07:08:35.685Z,80.95
2023-02-13T07:10:54.885Z,81.15
2023-02-13T07:11:54.794Z,81.87
2023-02-13T07:13:05.373Z,81.12
2023-02-13T07:13:54.814Z,80.71
2023-02-13T07:14:54.831Z,79.54
2023-02-13T07:15:54.864Z,79.34
2023-02-13T07:16:54.968Z,79.93
2023-02-13T07:17:54.883Z,80.99
2023-02-13T07:18:54.923Z,81.71
2023-02-13T07:19:54.922Z,82.22
2023-02-13T07:20:55.248Z,81.67
2023-02-13T07:21:55.026Z,80.95
2023-02-13T07:22:54.991Z,81.81
2023-02-13T07:23:54.974Z,82.22
2023-02-13T07:24:55.004Z,81.77
2023-02-13T07:25:55.024Z,81.46
2023-02-13T07:26:55.077Z,82.12
2023-02-13T07:27:55.105Z,82.01
2023-02-13T07:29:10.223Z,81.36
2023-02-13T07:29:55.116Z,81.26
2023-02-13T07:30:56.427Z,80.95
2023-02-13T07:31:55.191Z,80.85
2023-02-13T07:32:55.242Z,81.46
2023-02-13T07:33:55.268Z,81.26
2023-02-13T07:35:01.955Z,80.95
2023-02-13T07:35:55.348Z,81.12
2023-02-13T07:36:55.332Z,80.67
2023-02-13T07:37:55.421Z,80.09
2023-02-13T07:38:55.408Z,80.05
2023-02-13T07:39:55.392Z,80.44
2023-02-13T07:40:55.799Z,81.36
2023-02-13T07:41:55.521Z,81.01
2023-02-13T07:42:55.531Z,80.71
2023-02-13T07:43:55.561Z,80.40
2023-02-13T07:44:55.551Z,80.88
2023-02-13T07:45:56.043Z,79.75
2023-02-13T07:46:55.635Z,80.19
2023-02-13T07:47:55.634Z,79.79
2023-02-13T07:48:55.673Z,80.26
2023-02-13T07:49:55.697Z,79.61
2023-02-13T07:50:56.134Z,79.24
2023-02-13T07:51:55.839Z,80.60
2023-02-13T07:52:55.775Z,80.91
2023-02-13T07:53:56.593Z,80.30
2023-02-13T07:54:55.839Z,80.26
2023-02-13T07:55:56.292Z,79.64
2023-02-13T07:56:55.948Z,79.96
2023-02-13T07:57:55.941Z,80.26
2023-02-13T07:58:55.948Z,79.82
2023-02-13T07:59:55.957Z,79.41
2023-02-13T08:00:55.968Z,79.75
2023-02-13T08:01:56.049Z,79.75
2023-02-13T08:02:56.033Z,80.12
2023-02-13T08:03:56.147Z,79.64
2023-02-13T08:04:56.120Z,79.91
2023-02-13T08:05:56.400Z,79.10
2023-02-13T08:06:56.181Z,79.58
2023-02-13T08:07:56.191Z,81.01
2023-02-13T08:08:56.241Z,80.60
2023-02-13T08:09:56.295Z,80.95
2023-02-13T08:10:56.341Z,81.22
2023-02-13T08:11:56.393Z,81.15
2023-02-13T08:12:56.463Z,81.63
2023-02-13T08:13:56.461Z,81.12
2023-02-13T08:14:56.532Z,80.81
2023-02-13T08:15:56.796Z,80.81
2023-02-13T08:16:56.614Z,81.12
2023-02-13T08:17:56.637Z,80.91
2023-02-13T08:18:56.648Z,81.32
2023-02-13T08:19:56.794Z,81.12
2023-02-13T08:20:56.701Z,81.12
2023-02-13T08:21:56.835Z,81.57
2023-02-13T08:22:56.828Z,82.08
2023-02-13T08:23:56.904Z,82.08
2023-02-13T08:24:56.951Z,82.12
2023-02-13T08:25:57.449Z,82.18
2023-02-13T08:26:57.009Z,82.04
2023-02-13T08:27:57.055Z,81.77
2023-02-13T08:28:57.091Z,81.12
2023-02-13T08:29:57.128Z,81.22
2023-02-13T08:30:57.251Z,81.22
2023-02-13T08:31:57.488Z,81.01
2023-02-13T08:32:57.229Z,81.43
2023-02-13T08:33:57.279Z,80.67
2023-02-13T08:34:57.365Z,80.91
2023-02-13T08:35:57.627Z,82.39
2023-02-13T08:36:57.369Z,81.73
2023-02-13T08:37:57.431Z,81.49
2023-02-13T08:38:57.471Z,80.74
2023-02-13T08:39:57.535Z,79.43
2023-02-13T08:40:57.908Z,78.65
2023-02-13T08:41:57.571Z,79.20
2023-02-13T08:42:57.811Z,79.71
2023-02-13T08:43:57.620Z,79.41
2023-02-13T08:44:58.804Z,79.61
2023-02-13T08:45:57.963Z,79.61
2023-02-13T08:46:57.664Z,80.16
2023-02-13T08:47:57.743Z,80.22
2023-02-13T08:48:57.733Z,80.88
2023-02-13T08:49:57.816Z,80.43
2023-02-13T08:50:57.787Z,80.08
2023-02-13T08:51:57.813Z,79.88
2023-02-13T08:52:57.853Z,79.41
2023-02-13T08:53:57.903Z,79.50
2023-02-13T08:54:57.947Z,80.05
2023-02-13T08:55:58.408Z,80.02
2023-02-13T08:56:58.812Z,80.33
2023-02-13T08:57:57.977Z,80.33
2023-02-13T08:58:57.986Z,80.12
2023-02-13T08:59:58.036Z,79.71
2023-02-13T09:00:58.129Z,80.16
2023-02-13T09:01:58.128Z,80.57
2023-02-13T09:02:58.177Z,80.26
2023-02-13T09:03:58.205Z,80.94
2023-02-13T09:04:58.244Z,80.53
2023-02-13T09:05:58.432Z,79.91
2023-02-13T09:06:58.300Z,79.78
2023-02-13T09:07:58.318Z,78.96
2023-02-13T09:08:58.335Z,79.50
2023-02-13T09:09:58.374Z,79.82
2023-02-13T09:10:58.381Z,80.63
2023-02-13T09:11:58.409Z,80.02
2023-02-13T09:12:58.420Z,81.12
2023-02-13T09:13:58.529Z,81.29
2023-02-13T09:14:58.490Z,80.46
2023-02-13T09:15:58.785Z,80.67
2023-02-13T09:16:58.548Z,81.70
2023-02-13T09:17:58.584Z,80.53
2023-02-13T09:18:58.605Z,80.94
2023-02-13T09:19:58.613Z,80.53
2023-02-13T09:20:58.665Z,80.43
2023-02-13T09:21:58.656Z,80.67
2023-02-13T09:22:58.671Z,80.98
2023-02-13T09:23:58.696Z,80.46
2023-02-13T09:24:58.737Z,80.77
2023-02-13T09:25:59.013Z,80.74
2023-02-13T09:26:58.786Z,80.60
2023-02-13T09:27:58.780Z,79.88
2023-02-13T09:28:58.788Z,79.16
2023-02-13T09:29:58.839Z,79.13
2023-02-13T09:30:59.099Z,79.47
2023-02-13T09:31:59.139Z,79.16
2023-02-13T09:32:58.890Z,78.55
2023-02-13T09:33:58.937Z,79.27
2023-02-13T09:34:58.949Z,79.91
2023-02-13T09:35:59.199Z,79.71
2023-02-13T09:36:58.924Z,80.33
2023-02-13T09:37:58.974Z,79.98
2023-02-13T09:38:58.962Z,79.57
2023-02-13T09:39:59.043Z,79.57
2023-02-13T09:40:59.012Z,79.53
2023-02-13T09:41:59.154Z,79.23
2023-02-13T09:42:59.089Z,79.13
2023-02-13T09:43:59.107Z,78.31
2023-02-13T09:44:59.181Z,78.65
2023-02-13T09:45:59.758Z,79.06
2023-02-13T09:46:59.264Z,80.19
2023-02-13T09:47:59.293Z,79.47
2023-02-13T09:48:59.306Z,79.47
2023-02-13T09:49:59.326Z,79.13
2023-02-13T09:50:59.421Z,78.52
2023-02-13T09:51:59.393Z,78.55
2023-02-13T09:52:59.379Z,79.96
2023-02-13T09:53:59.389Z,80.12
2023-02-13T09:54:59.434Z,79.78
2023-02-13T09:55:59.749Z,79.13
2023-02-13T09:56:59.516Z,78.82
2023-02-13T09:57:59.545Z,78.68
2023-02-13T09:58:59.579Z,78.00
2023-02-13T09:59:59.555Z,78.34
2023-02-13T10:00:59.639Z,78.41
2023-02-13T10:01:59.686Z,79.16
2023-02-13T10:02:59.780Z,78.86
2023-02-13T10:03:59.818Z,79.41
2023-02-13T10:04:59.839Z,79.30
2023-02-13T10:06:00.159Z,79.88
2023-02-13T10:06:59.811Z,79.06
2023-02-13T10:07:59.844Z,78.65
2023-02-13T10:08:59.878Z,78.82
2023-02-13T10:09:59.902Z,78.59
2023-02-13T10:10:59.969Z,79.00
2023-02-13T10:12:00.030Z,79.16
2023-02-13T10:13:00.117Z,78.45
2023-02-13T10:14:00.156Z,78.96
2023-02-13T10:15:00.174Z,79.24
2023-02-13T10:16:00.690Z,80.77
2023-02-13T10:17:00.189Z,79.68
2023-02-13T10:18:00.245Z,78.69
2023-02-13T10:19:00.291Z,80.77
2023-02-13T10:20:00.341Z,80.26
2023-02-13T10:21:01.172Z,79.68
2023-02-13T10:22:01.282Z,79.02
2023-02-13T10:23:01.177Z,78.72
2023-02-13T10:24:01.296Z,78.24
2023-02-13T10:25:00.370Z,78.31
2023-02-13T10:26:00.677Z,77.66
2023-02-13T10:27:00.377Z,76.90
2023-02-13T10:28:00.438Z,76.60
2023-02-13T10:29:00.464Z,76.81
2023-02-13T10:30:00.515Z,76.64
2023-02-13T10:31:00.635Z,77.04
2023-02-13T10:32:00.781Z,77.08
2023-02-13T10:33:00.666Z,77.56
2023-02-13T10:34:00.709Z,76.81
2023-02-13T10:35:00.749Z,76.88
2023-02-13T10:36:00.736Z,78.55
2023-02-13T10:37:00.847Z,78.89
2023-02-13T10:38:00.867Z,79.27
2023-02-13T10:39:00.896Z,78.31
2023-02-13T10:40:00.877Z,77.73
2023-02-13T10:41:00.919Z,78.38
2023-02-13T10:42:00.968Z,79.16
2023-02-13T10:43:00.961Z,78.69
2023-02-13T10:44:00.998Z,79.27
2023-02-13T10:45:01.077Z,78.31
2023-02-13T10:46:01.339Z,77.80
2023-02-13T10:47:01.149Z,77.56
2023-02-13T10:48:01.212Z,77.19
2023-02-13T10:49:01.240Z,78.04
2023-02-13T10:50:01.211Z,78.55
2023-02-13T10:51:01.240Z,77.76
2023-02-13T10:52:01.272Z,77.59
2023-02-13T10:53:01.357Z,77.73
2023-02-13T10:54:01.356Z,77.83
2023-02-13T10:55:02.760Z,77.83
2023-02-13T10:56:01.644Z,77.73
2023-02-13T10:57:02.966Z,78.45
2023-02-13T10:58:01.515Z,78.38
2023-02-13T10:59:01.539Z,77.94
2023-02-13T11:00:01.553Z,77.73
2023-02-13T11:01:01.601Z,79.20
2023-02-13T11:02:01.722Z,78.38
2023-02-13T11:03:01.681Z,76.60
2023-02-13T11:04:01.814Z,75.58
2023-02-13T11:05:01.746Z,75.62
2023-02-13T11:06:01.770Z,77.32
2023-02-13T11:07:01.776Z,77.12
2023-02-13T11:08:01.812Z,77.04
2023-02-13T11:09:01.844Z,75.99
2023-02-13T11:10:01.908Z,75.68
2023-02-13T11:11:01.924Z,76.84
2023-02-13T11:12:01.941Z,75.95
2023-02-13T11:13:02.001Z,75.17
2023-02-13T11:14:02.060Z,74.90
2023-02-13T11:15:02.102Z,74.42
2023-02-13T11:16:02.648Z,74.29
2023-02-13T11:17:02.136Z,74.18
2023-02-13T11:18:02.154Z,73.50
2023-02-13T11:19:02.178Z,74.35
2023-02-13T11:20:02.251Z,74.59
2023-02-13T11:21:02.251Z,74.29
2023-02-13T11:22:02.242Z,73.88
2023-02-13T11:23:02.292Z,74.29
2023-02-13T11:24:02.323Z,73.60
2023-02-13T11:25:02.391Z,75.13
2023-02-13T11:26:02.447Z,74.59
2023-02-13T11:27:02.489Z,74.01
2023-02-13T11:28:02.549Z,73.94
2023-02-13T11:29:02.523Z,74.90
2023-02-13T11:30:02.565Z,75.27
2023-02-13T11:31:02.674Z,74.56
2023-02-13T11:32:02.696Z,74.69
2023-02-13T11:33:02.668Z,75.31
2023-02-13T11:34:02.726Z,74.73
2023-02-13T11:35:02.776Z,74.49
2023-02-13T11:36:02.826Z,73.13
2023-02-13T11:37:02.886Z,72.58
2023-02-13T11:38:02.887Z,72.86
2023-02-13T11:39:02.948Z,73.36
2023-02-13T11:40:02.997Z,73.36
2023-02-13T11:41:03.000Z,72.82
2023-02-13T11:42:03.082Z,72.41
2023-02-13T11:43:03.074Z,72.82
2023-02-13T11:44:03.076Z,71.94
2023-02-13T11:45:03.080Z,71.60
2023-02-13T11:46:03.127Z,71.73
2023-02-13T11:47:03.240Z,72.45
2023-02-13T11:48:03.158Z,72.04
2023-02-13T11:49:03.159Z,70.81
2023-02-13T11:50:03.160Z,71.26
2023-02-13T11:51:03.170Z,71.94
2023-02-13T11:52:03.200Z,70.92
2023-02-13T11:53:03.344Z,71.97
2023-02-13T11:54:03.364Z,72.00
2023-02-13T11:55:05.185Z,71.43
2023-02-13T11:56:03.397Z,71.94
2023-02-13T11:57:05.155Z,70.31
2023-02-13T11:58:03.467Z,69.59
2023-02-13T11:59:03.551Z,70.03
2023-02-13T12:00:03.538Z,70.14
2023-02-13T12:01:03.613Z,70.72
2023-02-13T12:02:03.597Z,70.85
2023-02-13T12:03:03.734Z,71.26
2023-02-13T12:04:03.717Z,71.67
2023-02-13T12:05:03.600Z,71.05
2023-02-13T12:06:03.590Z,71.80
2023-02-13T12:07:03.627Z,71.91
2023-02-13T12:08:03.651Z,72.31
2023-02-13T12:09:03.650Z,71.80
2023-02-13T12:10:03.682Z,72.07
2023-02-13T12:11:03.706Z,72.28
2023-02-13T12:12:05.383Z,71.43
2023-02-13T12:13:03.793Z,70.51
2023-02-13T12:14:03.852Z,70.61
2023-02-13T12:15:03.828Z,70.14
2023-02-13T12:16:04.039Z,70.24
2023-02-13T12:17:03.864Z,69.96
2023-02-13T12:18:03.836Z,69.90
2023-02-13T12:19:03.862Z,69.02
2023-02-13T12:20:03.885Z,69.39
2023-02-13T12:21:03.896Z,69.19
2023-02-13T12:22:03.889Z,69.63
2023-02-13T12:23:03.906Z,69.66
2023-02-13T12:24:03.879Z,70.14
2023-02-13T12:25:03.928Z,70.17
2023-02-13T12:26:03.985Z,70.10
2023-02-13T12:27:04.010Z,69.49
2023-02-13T12:28:04.000Z,68.65
2023-02-13T12:29:04.026Z,68.04
2023-02-13T12:30:04.046Z,67.73
2023-02-13T12:31:04.143Z,67.55
2023-02-13T12:32:04.136Z,68.01
2023-02-13T12:33:04.177Z,67.57
2023-02-13T12:34:04.205Z,67.66
2023-02-13T12:35:04.198Z,66.75
2023-02-13T12:36:04.201Z,66.82
2023-02-13T12:37:04.272Z,66.61
2023-02-13T12:38:04.281Z,66.44
2023-02-13T12:39:04.350Z,66.72
2023-02-13T12:40:04.333Z,66.61
2023-02-13T12:41:04.342Z,66.24
2023-02-13T12:42:04.348Z,66.78
2023-02-13T12:43:04.380Z,67.12
2023-02-13T12:44:04.449Z,66.99
2023-02-13T12:45:04.430Z,68.68
2023-02-13T12:46:04.503Z,68.65
2023-02-13T12:47:04.462Z,68.07
2023-02-13T12:48:04.500Z,68.68
2023-02-13T12:49:04.584Z,69.32
2023-02-13T12:50:04.591Z,69.35
2023-02-13T12:51:04.680Z,69.66
2023-02-13T12:52:04.698Z,69.96
2023-02-13T12:53:04.751Z,69.76
2023-02-13T12:54:04.800Z,70.04